sensor_id;sensor_type;location;lat;lon;timestamp;P1;durP1;ratioP1;P2;durP2;ratioP2
32080;SDS011;18593;51.426;7.030;2023-08-21T00:01:55;11.23;;;2.35;;
32080;SDS011;18593;51.426;7.030;2023-08-21T00:04:22;5.60;;;2.55;;
32080;SDS011;18593;51.426;7.030;2023-08-21T00:06:49;6.50;;;2.53;;
32080;SDS011;18593;51.426;7.030;2023-08-21T00:09:17;7.38;;;2.95;;
32080;SDS011;18593;51.426;7.030;2023-08-21T00:11:45;9.05;;;2.92;;
32080;SDS011;18593;51.426;7.030;2023-08-21T00:14:13;9.60;;;2.70;;
32080;SDS011;18593;51.426;7.030;2023-08-21T00:16:40;9.15;;;3.10;;
32080;SDS011;18593;51.426;7.030;2023-08-21T00:19:07;8.43;;;2.70;;
32080;SDS011;18593;51.426;7.030;2023-08-21T00:21:34;7.70;;;2.90;;
32080;SDS011;18593;51.426;7.030;2023-08-21T00:24:02;9.50;;;2.30;;
32080;SDS011;18593;51.426;7.030;2023-08-21T00:26:29;8.15;;;2.20;;
32080;SDS011;18593;51.426;7.030;2023-08-21T00:28:58;6.72;;;2.70;;
32080;SDS011;18593;51.426;7.030;2023-08-21T00:31:25;11.38;;;2.30;;
32080;SDS011;18593;51.426;7.030;2023-08-21T00:33:53;8.85;;;2.65;;
32080;SDS011;18593;51.426;7.030;2023-08-21T00:36:20;7.45;;;2.70;;
32080;SDS011;18593;51.426;7.030;2023-08-21T00:38:48;6.80;;;2.60;;
32080;SDS011;18593;51.426;7.030;2023-08-21T00:41:15;4.45;;;2.15;;
32080;SDS011;18593;51.426;7.030;2023-08-21T00:43:42;7.35;;;2.72;;
32080;SDS011;18593;51.426;7.030;2023-08-21T00:46:11;7.30;;;2.45;;
32080;SDS011;18593;51.426;7.030;2023-08-21T00:48:39;6.40;;;2.33;;
32080;SDS011;18593;51.426;7.030;2023-08-21T00:51:06;7.35;;;2.75;;
32080;SDS011;18593;51.426;7.030;2023-08-21T00:53:34;6.22;;;2.67;;
32080;SDS011;18593;51.426;7.030;2023-08-21T00:56:01;8.30;;;2.60;;
32080;SDS011;18593;51.426;7.030;2023-08-21T00:58:29;8.38;;;2.53;;
32080;SDS011;18593;51.426;7.030;2023-08-21T01:00:56;5.97;;;2.33;;
32080;SDS011;18593;51.426;7.030;2023-08-21T01:03:25;6.88;;;2.47;;
32080;SDS011;18593;51.426;7.030;2023-08-21T01:05:53;5.75;;;2.38;;
32080;SDS011;18593;51.426;7.030;2023-08-21T01:08:23;8.52;;;2.33;;
32080;SDS011;18593;51.426;7.030;2023-08-21T01:10:58;6.90;;;2.55;;
32080;SDS011;18593;51.426;7.030;2023-08-21T01:13:34;8.55;;;2.50;;
32080;SDS011;18593;51.426;7.030;2023-08-21T01:16:14;6.72;;;2.22;;
32080;SDS011;18593;51.426;7.030;2023-08-21T01:18:44;4.95;;;2.33;;
32080;SDS011;18593;51.426;7.030;2023-08-21T01:21:13;7.15;;;2.50;;
32080;SDS011;18593;51.426;7.030;2023-08-21T01:23:43;5.00;;;2.40;;
32080;SDS011;18593;51.426;7.030;2023-08-21T01:26:10;5.35;;;2.03;;
32080;SDS011;18593;51.426;7.030;2023-08-21T01:28:37;5.05;;;2.20;;
32080;SDS011;18593;51.426;7.030;2023-08-21T01:31:06;6.70;;;2.22;;
32080;SDS011;18593;51.426;7.030;2023-08-21T01:33:44;9.43;;;2.67;;
32080;SDS011;18593;51.426;7.030;2023-08-21T01:36:16;4.78;;;2.03;;
32080;SDS011;18593;51.426;7.030;2023-08-21T01:38:46;5.32;;;2.30;;
32080;SDS011;18593;51.426;7.030;2023-08-21T01:41:14;5.40;;;1.85;;
32080;SDS011;18593;51.426;7.030;2023-08-21T01:43:42;8.35;;;2.38;;
32080;SDS011;18593;51.426;7.030;2023-08-21T01:46:09;10.55;;;2.33;;
32080;SDS011;18593;51.426;7.030;2023-08-21T01:48:37;5.85;;;2.20;;
32080;SDS011;18593;51.426;7.030;2023-08-21T01:51:04;7.43;;;2.50;;
32080;SDS011;18593;51.426;7.030;2023-08-21T01:53:31;7.45;;;2.22;;
32080;SDS011;18593;51.426;7.030;2023-08-21T01:56:01;6.40;;;2.33;;
32080;SDS011;18593;51.426;7.030;2023-08-21T01:58:31;8.65;;;2.00;;
32080;SDS011;18593;51.426;7.030;2023-08-21T02:00:58;5.40;;;2.00;;
32080;SDS011;18593;51.426;7.030;2023-08-21T02:03:26;14.50;;;2.45;;
32080;SDS011;18593;51.426;7.030;2023-08-21T02:05:55;7.13;;;2.35;;
32080;SDS011;18593;51.426;7.030;2023-08-21T02:08:25;5.60;;;2.15;;
32080;SDS011;18593;51.426;7.030;2023-08-21T02:10:57;10.45;;;2.70;;
32080;SDS011;18593;51.426;7.030;2023-08-21T02:13:27;7.78;;;2.00;;
32080;SDS011;18593;51.426;7.030;2023-08-21T02:15:54;6.07;;;1.80;;
32080;SDS011;18593;51.426;7.030;2023-08-21T02:18:21;5.30;;;2.17;;
32080;SDS011;18593;51.426;7.030;2023-08-21T02:20:49;7.30;;;1.92;;
32080;SDS011;18593;51.426;7.030;2023-08-21T02:23:16;12.07;;;2.50;;
32080;SDS011;18593;51.426;7.030;2023-08-21T02:25:43;7.40;;;2.35;;
32080;SDS011;18593;51.426;7.030;2023-08-21T02:28:11;6.63;;;2.10;;
32080;SDS011;18593;51.426;7.030;2023-08-21T02:30:41;6.88;;;2.28;;
32080;SDS011;18593;51.426;7.030;2023-08-21T02:33:08;8.85;;;2.50;;
32080;SDS011;18593;51.426;7.030;2023-08-21T02:35:37;9.75;;;2.67;;
32080;SDS011;18593;51.426;7.030;2023-08-21T02:38:05;6.47;;;2.10;;
32080;SDS011;18593;51.426;7.030;2023-08-21T02:40:34;5.30;;;1.80;;
32080;SDS011;18593;51.426;7.030;2023-08-21T02:43:02;9.23;;;2.75;;
32080;SDS011;18593;51.426;7.030;2023-08-21T02:45:29;13.55;;;2.83;;
32080;SDS011;18593;51.426;7.030;2023-08-21T02:47:58;9.45;;;2.50;;
32080;SDS011;18593;51.426;7.030;2023-08-21T02:50:25;5.05;;;1.95;;
32080;SDS011;18593;51.426;7.030;2023-08-21T02:52:53;8.57;;;2.25;;
32080;SDS011;18593;51.426;7.030;2023-08-21T02:55:21;11.65;;;2.35;;
32080;SDS011;18593;51.426;7.030;2023-08-21T02:57:48;5.22;;;2.05;;
32080;SDS011;18593;51.426;7.030;2023-08-21T03:00:16;6.35;;;2.20;;
32080;SDS011;18593;51.426;7.030;2023-08-21T03:02:43;7.55;;;2.38;;
32080;SDS011;18593;51.426;7.030;2023-08-21T03:05:12;6.00;;;2.20;;
32080;SDS011;18593;51.426;7.030;2023-08-21T03:07:39;7.03;;;2.33;;
32080;SDS011;18593;51.426;7.030;2023-08-21T03:10:07;5.72;;;2.20;;
32080;SDS011;18593;51.426;7.030;2023-08-21T03:12:35;7.40;;;2.33;;
32080;SDS011;18593;51.426;7.030;2023-08-21T03:15:03;7.95;;;2.40;;
32080;SDS011;18593;51.426;7.030;2023-08-21T03:17:31;10.23;;;2.10;;
32080;SDS011;18593;51.426;7.030;2023-08-21T03:19:58;8.27;;;2.30;;
32080;SDS011;18593;51.426;7.030;2023-08-21T03:22:27;6.82;;;2.22;;
32080;SDS011;18593;51.426;7.030;2023-08-21T03:24:56;6.15;;;2.38;;
32080;SDS011;18593;51.426;7.030;2023-08-21T03:27:24;6.20;;;2.33;;
32080;SDS011;18593;51.426;7.030;2023-08-21T03:29:51;6.90;;;2.08;;
32080;SDS011;18593;51.426;7.030;2023-08-21T03:32:18;7.47;;;2.33;;
32080;SDS011;18593;51.426;7.030;2023-08-21T03:34:46;7.65;;;2.25;;
32080;SDS011;18593;51.426;7.030;2023-08-21T03:37:14;7.57;;;2.40;;
32080;SDS011;18593;51.426;7.030;2023-08-21T03:39:42;4.57;;;2.00;;
32080;SDS011;18593;51.426;7.030;2023-08-21T03:42:10;7.60;;;2.30;;
32080;SDS011;18593;51.426;7.030;2023-08-21T03:44:39;7.38;;;2.10;;
32080;SDS011;18593;51.426;7.030;2023-08-21T03:47:07;7.55;;;2.45;;
32080;SDS011;18593;51.426;7.030;2023-08-21T03:49:43;4.53;;;2.00;;
32080;SDS011;18593;51.426;7.030;2023-08-21T03:52:13;5.80;;;2.37;;
32080;SDS011;18593;51.426;7.030;2023-08-21T03:54:43;7.03;;;2.25;;
32080;SDS011;18593;51.426;7.030;2023-08-21T03:57:10;5.80;;;2.08;;
32080;SDS011;18593;51.426;7.030;2023-08-21T03:59:37;8.25;;;2.60;;
32080;SDS011;18593;51.426;7.030;2023-08-21T04:02:05;7.25;;;2.88;;
32080;SDS011;18593;51.426;7.030;2023-08-21T04:04:32;9.75;;;2.40;;
32080;SDS011;18593;51.426;7.030;2023-08-21T04:06:59;8.30;;;2.58;;
32080;SDS011;18593;51.426;7.030;2023-08-21T04:09:27;6.57;;;2.72;;
32080;SDS011;18593;51.426;7.030;2023-08-21T04:11:55;8.05;;;2.45;;
32080;SDS011;18593;51.426;7.030;2023-08-21T04:14:23;9.63;;;2.70;;
32080;SDS011;18593;51.426;7.030;2023-08-21T04:16:50;5.28;;;2.60;;
32080;SDS011;18593;51.426;7.030;2023-08-21T04:19:18;5.75;;;2.40;;
32080;SDS011;18593;51.426;7.030;2023-08-21T04:21:46;6.65;;;2.22;;
32080;SDS011;18593;51.426;7.030;2023-08-21T04:24:13;7.38;;;2.55;;
32080;SDS011;18593;51.426;7.030;2023-08-21T04:26:40;7.63;;;2.50;;
32080;SDS011;18593;51.426;7.030;2023-08-21T04:29:09;7.50;;;2.40;;
32080;SDS011;18593;51.426;7.030;2023-08-21T04:31:36;6.28;;;2.10;;
32080;SDS011;18593;51.426;7.030;2023-08-21T04:34:04;7.90;;;2.25;;
32080;SDS011;18593;51.426;7.030;2023-08-21T04:36:32;8.50;;;2.38;;
32080;SDS011;18593;51.426;7.030;2023-08-21T04:38:59;10.23;;;2.47;;
32080;SDS011;18593;51.426;7.030;2023-08-21T04:41:27;8.90;;;2.63;;
32080;SDS011;18593;51.426;7.030;2023-08-21T04:43:54;6.72;;;2.70;;
32080;SDS011;18593;51.426;7.030;2023-08-21T04:46:24;6.38;;;2.65;;
32080;SDS011;18593;51.426;7.030;2023-08-21T04:48:51;11.88;;;2.90;;
32080;SDS011;18593;51.426;7.030;2023-08-21T04:51:19;5.13;;;2.47;;
32080;SDS011;18593;51.426;7.030;2023-08-21T04:53:46;4.38;;;2.08;;
32080;SDS011;18593;51.426;7.030;2023-08-21T04:56:17;8.30;;;2.90;;
32080;SDS011;18593;51.426;7.030;2023-08-21T04:58:44;6.20;;;2.22;;
32080;SDS011;18593;51.426;7.030;2023-08-21T05:01:11;5.55;;;2.13;;
32080;SDS011;18593;51.426;7.030;2023-08-21T05:03:45;6.13;;;2.72;;
32080;SDS011;18593;51.426;7.030;2023-08-21T05:06:12;7.25;;;2.67;;
32080;SDS011;18593;51.426;7.030;2023-08-21T05:08:40;7.43;;;2.13;;
32080;SDS011;18593;51.426;7.030;2023-08-21T05:11:09;5.90;;;2.47;;
32080;SDS011;18593;51.426;7.030;2023-08-21T05:13:38;5.72;;;2.63;;
32080;SDS011;18593;51.426;7.030;2023-08-21T05:16:08;6.27;;;2.60;;
32080;SDS011;18593;51.426;7.030;2023-08-21T05:18:37;5.80;;;2.38;;
32080;SDS011;18593;51.426;7.030;2023-08-21T05:21:07;6.22;;;2.65;;
32080;SDS011;18593;51.426;7.030;2023-08-21T05:23:35;7.72;;;2.95;;
32080;SDS011;18593;51.426;7.030;2023-08-21T05:26:06;7.18;;;2.70;;
32080;SDS011;18593;51.426;7.030;2023-08-21T05:28:33;7.95;;;2.80;;
32080;SDS011;18593;51.426;7.030;2023-08-21T05:31:00;6.80;;;2.58;;
32080;SDS011;18593;51.426;7.030;2023-08-21T05:33:39;8.45;;;3.50;;
32080;SDS011;18593;51.426;7.030;2023-08-21T05:36:08;8.52;;;3.45;;
32080;SDS011;18593;51.426;7.030;2023-08-21T05:38:35;12.82;;;2.83;;
32080;SDS011;18593;51.426;7.030;2023-08-21T05:41:03;9.73;;;3.42;;
32080;SDS011;18593;51.426;7.030;2023-08-21T05:43:30;6.65;;;3.10;;
32080;SDS011;18593;51.426;7.030;2023-08-21T05:45:58;9.45;;;3.50;;
32080;SDS011;18593;51.426;7.030;2023-08-21T05:48:25;12.00;;;3.70;;
32080;SDS011;18593;51.426;7.030;2023-08-21T05:50:53;8.63;;;3.97;;
32080;SDS011;18593;51.426;7.030;2023-08-21T05:53:22;8.48;;;3.80;;
32080;SDS011;18593;51.426;7.030;2023-08-21T05:58:19;12.68;;;3.92;;
32080;SDS011;18593;51.426;7.030;2023-08-21T06:00:46;9.52;;;4.35;;
32080;SDS011;18593;51.426;7.030;2023-08-21T06:03:14;12.93;;;4.50;;
32080;SDS011;18593;51.426;7.030;2023-08-21T06:05:59;16.35;;;4.22;;
32080;SDS011;18593;51.426;7.030;2023-08-21T06:08:28;9.35;;;4.47;;
32080;SDS011;18593;51.426;7.030;2023-08-21T06:10:56;11.65;;;5.03;;
32080;SDS011;18593;51.426;7.030;2023-08-21T06:13:23;9.63;;;4.30;;
32080;SDS011;18593;51.426;7.030;2023-08-21T06:15:52;15.60;;;4.68;;
32080;SDS011;18593;51.426;7.030;2023-08-21T06:18:21;10.13;;;4.20;;
32080;SDS011;18593;51.426;7.030;2023-08-21T06:20:49;12.45;;;4.85;;
32080;SDS011;18593;51.426;7.030;2023-08-21T06:23:18;11.85;;;4.82;;
32080;SDS011;18593;51.426;7.030;2023-08-21T06:25:48;15.10;;;5.05;;
32080;SDS011;18593;51.426;7.030;2023-08-21T06:28:17;18.15;;;4.97;;
32080;SDS011;18593;51.426;7.030;2023-08-21T06:30:45;10.25;;;4.95;;
32080;SDS011;18593;51.426;7.030;2023-08-21T06:33:12;11.10;;;5.18;;
32080;SDS011;18593;51.426;7.030;2023-08-21T06:35:39;11.40;;;4.90;;
32080;SDS011;18593;51.426;7.030;2023-08-21T06:38:07;16.95;;;4.70;;
32080;SDS011;18593;51.426;7.030;2023-08-21T06:40:35;16.27;;;5.03;;
32080;SDS011;18593;51.426;7.030;2023-08-21T06:43:04;11.88;;;4.43;;
32080;SDS011;18593;51.426;7.030;2023-08-21T06:45:33;10.80;;;4.28;;
32080;SDS011;18593;51.426;7.030;2023-08-21T06:48:02;12.02;;;4.00;;
32080;SDS011;18593;51.426;7.030;2023-08-21T06:50:30;10.38;;;3.88;;
32080;SDS011;18593;51.426;7.030;2023-08-21T06:52:57;11.98;;;4.30;;
32080;SDS011;18593;51.426;7.030;2023-08-21T06:55:24;9.13;;;3.67;;
32080;SDS011;18593;51.426;7.030;2023-08-21T06:57:52;11.20;;;3.80;;
32080;SDS011;18593;51.426;7.030;2023-08-21T07:00:20;9.20;;;3.92;;
32080;SDS011;18593;51.426;7.030;2023-08-21T07:02:47;9.90;;;3.28;;
32080;SDS011;18593;51.426;7.030;2023-08-21T07:05:15;11.75;;;3.92;;
32080;SDS011;18593;51.426;7.030;2023-08-21T07:07:42;8.07;;;3.35;;
32080;SDS011;18593;51.426;7.030;2023-08-21T07:10:09;8.68;;;3.67;;
32080;SDS011;18593;51.426;7.030;2023-08-21T07:12:37;7.88;;;3.42;;
32080;SDS011;18593;51.426;7.030;2023-08-21T07:15:05;9.02;;;3.05;;
32080;SDS011;18593;51.426;7.030;2023-08-21T07:17:35;9.15;;;2.97;;
32080;SDS011;18593;51.426;7.030;2023-08-21T07:20:02;7.82;;;3.47;;
32080;SDS011;18593;51.426;7.030;2023-08-21T07:22:31;10.48;;;3.47;;
32080;SDS011;18593;51.426;7.030;2023-08-21T07:24:58;12.15;;;3.80;;
32080;SDS011;18593;51.426;7.030;2023-08-21T07:27:29;6.85;;;3.00;;
32080;SDS011;18593;51.426;7.030;2023-08-21T07:29:56;12.55;;;3.42;;
32080;SDS011;18593;51.426;7.030;2023-08-21T07:32:24;9.68;;;3.30;;
32080;SDS011;18593;51.426;7.030;2023-08-21T07:34:53;9.95;;;3.05;;
32080;SDS011;18593;51.426;7.030;2023-08-21T07:37:20;9.45;;;2.83;;
32080;SDS011;18593;51.426;7.030;2023-08-21T07:39:48;12.48;;;3.13;;
32080;SDS011;18593;51.426;7.030;2023-08-21T07:42:15;10.48;;;3.00;;
32080;SDS011;18593;51.426;7.030;2023-08-21T07:44:43;11.88;;;3.15;;
32080;SDS011;18593;51.426;7.030;2023-08-21T07:47:11;9.90;;;3.10;;
32080;SDS011;18593;51.426;7.030;2023-08-21T07:49:38;8.05;;;2.90;;
32080;SDS011;18593;51.426;7.030;2023-08-21T07:52:07;8.38;;;2.90;;
32080;SDS011;18593;51.426;7.030;2023-08-21T07:54:35;9.23;;;2.70;;
32080;SDS011;18593;51.426;7.030;2023-08-21T07:57:02;10.25;;;2.67;;
32080;SDS011;18593;51.426;7.030;2023-08-21T07:59:31;8.82;;;2.63;;
32080;SDS011;18593;51.426;7.030;2023-08-21T08:01:58;13.50;;;2.92;;
32080;SDS011;18593;51.426;7.030;2023-08-21T08:04:26;12.88;;;3.97;;
32080;SDS011;18593;51.426;7.030;2023-08-21T08:06:53;14.68;;;3.78;;
32080;SDS011;18593;51.426;7.030;2023-08-21T08:09:22;9.50;;;2.88;;
32080;SDS011;18593;51.426;7.030;2023-08-21T08:11:49;10.65;;;3.60;;
32080;SDS011;18593;51.426;7.030;2023-08-21T08:14:16;11.05;;;3.78;;
32080;SDS011;18593;51.426;7.030;2023-08-21T08:16:44;12.63;;;3.60;;
32080;SDS011;18593;51.426;7.030;2023-08-21T08:19:11;9.30;;;3.08;;
32080;SDS011;18593;51.426;7.030;2023-08-21T08:21:38;9.48;;;2.70;;
32080;SDS011;18593;51.426;7.030;2023-08-21T08:24:06;13.57;;;3.20;;
32080;SDS011;18593;51.426;7.030;2023-08-21T08:26:34;7.30;;;2.53;;
32080;SDS011;18593;51.426;7.030;2023-08-21T08:29:02;9.68;;;3.28;;
32080;SDS011;18593;51.426;7.030;2023-08-21T08:31:30;10.48;;;3.10;;
32080;SDS011;18593;51.426;7.030;2023-08-21T08:33:57;12.07;;;2.97;;
32080;SDS011;18593;51.426;7.030;2023-08-21T08:36:24;9.68;;;2.97;;
32080;SDS011;18593;51.426;7.030;2023-08-21T08:38:52;7.03;;;2.90;;
32080;SDS011;18593;51.426;7.030;2023-08-21T08:41:21;10.70;;;2.78;;
32080;SDS011;18593;51.426;7.030;2023-08-21T08:43:57;15.07;;;2.75;;
32080;SDS011;18593;51.426;7.030;2023-08-21T08:46:25;11.13;;;3.22;;
32080;SDS011;18593;51.426;7.030;2023-08-21T08:48:55;9.23;;;2.47;;
32080;SDS011;18593;51.426;7.030;2023-08-21T08:51:24;5.85;;;2.42;;
32080;SDS011;18593;51.426;7.030;2023-08-21T08:53:51;11.45;;;2.80;;
32080;SDS011;18593;51.426;7.030;2023-08-21T08:56:18;8.32;;;2.80;;
32080;SDS011;18593;51.426;7.030;2023-08-21T08:58:46;8.25;;;2.10;;
32080;SDS011;18593;51.426;7.030;2023-08-21T09:01:15;11.13;;;2.72;;
32080;SDS011;18593;51.426;7.030;2023-08-21T09:03:42;6.88;;;2.67;;
32080;SDS011;18593;51.426;7.030;2023-08-21T09:06:11;8.43;;;2.67;;
32080;SDS011;18593;51.426;7.030;2023-08-21T09:08:38;9.68;;;2.75;;
32080;SDS011;18593;51.426;7.030;2023-08-21T09:11:08;12.90;;;2.50;;
32080;SDS011;18593;51.426;7.030;2023-08-21T09:13:36;10.95;;;2.90;;
32080;SDS011;18593;51.426;7.030;2023-08-21T09:16:04;7.63;;;2.28;;
32080;SDS011;18593;51.426;7.030;2023-08-21T09:18:34;10.05;;;3.15;;
32080;SDS011;18593;51.426;7.030;2023-08-21T09:21:02;10.55;;;2.67;;
32080;SDS011;18593;51.426;7.030;2023-08-21T09:23:29;11.77;;;3.03;;
32080;SDS011;18593;51.426;7.030;2023-08-21T09:25:56;9.70;;;2.38;;
32080;SDS011;18593;51.426;7.030;2023-08-21T09:28:24;11.80;;;2.70;;
32080;SDS011;18593;51.426;7.030;2023-08-21T09:30:52;8.05;;;2.53;;
32080;SDS011;18593;51.426;7.030;2023-08-21T09:33:21;9.15;;;2.92;;
32080;SDS011;18593;51.426;7.030;2023-08-21T09:35:52;8.40;;;2.80;;
32080;SDS011;18593;51.426;7.030;2023-08-21T09:38:20;8.98;;;2.85;;
32080;SDS011;18593;51.426;7.030;2023-08-21T09:40:52;7.63;;;3.30;;
32080;SDS011;18593;51.426;7.030;2023-08-21T09:43:20;9.75;;;3.63;;
32080;SDS011;18593;51.426;7.030;2023-08-21T09:45:49;13.10;;;3.38;;
32080;SDS011;18593;51.426;7.030;2023-08-21T09:48:20;11.70;;;3.03;;
32080;SDS011;18593;51.426;7.030;2023-08-21T09:50:49;10.15;;;3.17;;
32080;SDS011;18593;51.426;7.030;2023-08-21T09:53:19;11.23;;;3.30;;
32080;SDS011;18593;51.426;7.030;2023-08-21T09:55:48;13.68;;;3.88;;
32080;SDS011;18593;51.426;7.030;2023-08-21T09:58:19;10.68;;;3.28;;
32080;SDS011;18593;51.426;7.030;2023-08-21T10:00:47;8.45;;;3.80;;
32080;SDS011;18593;51.426;7.030;2023-08-21T10:03:18;9.63;;;3.30;;
32080;SDS011;18593;51.426;7.030;2023-08-21T10:05:47;10.90;;;4.07;;
32080;SDS011;18593;51.426;7.030;2023-08-21T10:08:18;10.82;;;3.63;;
32080;SDS011;18593;51.426;7.030;2023-08-21T10:10:50;11.15;;;3.25;;
32080;SDS011;18593;51.426;7.030;2023-08-21T10:13:17;11.32;;;3.92;;
32080;SDS011;18593;51.426;7.030;2023-08-21T10:15:45;8.02;;;3.70;;
32080;SDS011;18593;51.426;7.030;2023-08-21T10:18:20;11.00;;;4.45;;
32080;SDS011;18593;51.426;7.030;2023-08-21T10:20:49;9.68;;;3.78;;
32080;SDS011;18593;51.426;7.030;2023-08-21T10:23:24;9.23;;;4.03;;
32080;SDS011;18593;51.426;7.030;2023-08-21T10:25:55;10.65;;;3.78;;
32080;SDS011;18593;51.426;7.030;2023-08-21T10:28:24;10.48;;;4.35;;
32080;SDS011;18593;51.426;7.030;2023-08-21T10:30:51;9.30;;;3.55;;
32080;SDS011;18593;51.426;7.030;2023-08-21T10:33:24;11.48;;;3.85;;
32080;SDS011;18593;51.426;7.030;2023-08-21T10:36:13;9.90;;;3.22;;
32080;SDS011;18593;51.426;7.030;2023-08-21T10:39:03;10.07;;;3.55;;
32080;SDS011;18593;51.426;7.030;2023-08-21T10:41:38;8.35;;;3.33;;
32080;SDS011;18593;51.426;7.030;2023-08-21T10:44:05;9.40;;;3.40;;
32080;SDS011;18593;51.426;7.030;2023-08-21T10:49:19;13.38;;;3.88;;
32080;SDS011;18593;51.426;7.030;2023-08-21T10:51:46;8.65;;;3.58;;
32080;SDS011;18593;51.426;7.030;2023-08-21T10:54:17;9.10;;;3.50;;
32080;SDS011;18593;51.426;7.030;2023-08-21T10:56:44;10.57;;;3.60;;
32080;SDS011;18593;51.426;7.030;2023-08-21T10:59:11;10.52;;;3.45;;
32080;SDS011;18593;51.426;7.030;2023-08-21T11:01:42;9.68;;;3.40;;
32080;SDS011;18593;51.426;7.030;2023-08-21T11:04:10;6.47;;;2.72;;
32080;SDS011;18593;51.426;7.030;2023-08-21T11:06:38;9.77;;;3.25;;
32080;SDS011;18593;51.426;7.030;2023-08-21T11:09:05;11.18;;;3.20;;
32080;SDS011;18593;51.426;7.030;2023-08-21T11:11:40;10.35;;;3.30;;
32080;SDS011;18593;51.426;7.030;2023-08-21T11:16:39;10.32;;;2.90;;
32080;SDS011;18593;51.426;7.030;2023-08-21T11:19:07;7.70;;;2.60;;
32080;SDS011;18593;51.426;7.030;2023-08-21T11:21:35;10.73;;;3.15;;
32080;SDS011;18593;51.426;7.030;2023-08-21T11:24:02;9.32;;;2.88;;
32080;SDS011;18593;51.426;7.030;2023-08-21T11:26:30;9.38;;;2.83;;
32080;SDS011;18593;51.426;7.030;2023-08-21T11:28:58;10.82;;;2.83;;
32080;SDS011;18593;51.426;7.030;2023-08-21T11:31:27;7.53;;;2.70;;
32080;SDS011;18593;51.426;7.030;2023-08-21T11:33:55;10.93;;;3.03;;
32080;SDS011;18593;51.426;7.030;2023-08-21T11:36:22;10.45;;;2.83;;
32080;SDS011;18593;51.426;7.030;2023-08-21T11:44:21;9.82;;;2.83;;
32080;SDS011;18593;51.426;7.030;2023-08-21T11:46:50;8.27;;;2.78;;
32080;SDS011;18593;51.426;7.030;2023-08-21T11:49:18;8.48;;;2.90;;
32080;SDS011;18593;51.426;7.030;2023-08-21T11:51:47;8.57;;;2.85;;
32080;SDS011;18593;51.426;7.030;2023-08-21T11:54:16;6.75;;;2.60;;
32080;SDS011;18593;51.426;7.030;2023-08-21T11:56:46;14.40;;;3.05;;
32080;SDS011;18593;51.426;7.030;2023-08-21T11:59:22;8.55;;;2.80;;
32080;SDS011;18593;51.426;7.030;2023-08-21T12:01:50;12.55;;;2.90;;
32080;SDS011;18593;51.426;7.030;2023-08-21T12:04:17;7.75;;;2.78;;
32080;SDS011;18593;51.426;7.030;2023-08-21T12:06:45;7.50;;;2.80;;
32080;SDS011;18593;51.426;7.030;2023-08-21T12:09:12;9.10;;;2.80;;
32080;SDS011;18593;51.426;7.030;2023-08-21T12:11:40;7.00;;;2.65;;
32080;SDS011;18593;51.426;7.030;2023-08-21T12:14:07;8.88;;;3.03;;
32080;SDS011;18593;51.426;7.030;2023-08-21T12:16:36;7.72;;;2.95;;
32080;SDS011;18593;51.426;7.030;2023-08-21T12:19:04;6.82;;;2.47;;
32080;SDS011;18593;51.426;7.030;2023-08-21T12:21:34;11.45;;;3.25;;
32080;SDS011;18593;51.426;7.030;2023-08-21T12:24:03;11.18;;;2.60;;
32080;SDS011;18593;51.426;7.030;2023-08-21T12:26:31;7.38;;;2.92;;
32080;SDS011;18593;51.426;7.030;2023-08-21T12:29:00;8.65;;;2.97;;
32080;SDS011;18593;51.426;7.030;2023-08-21T12:31:27;7.05;;;2.70;;
32080;SDS011;18593;51.426;7.030;2023-08-21T12:33:57;10.80;;;3.25;;
32080;SDS011;18593;51.426;7.030;2023-08-21T12:36:24;7.75;;;2.67;;
32080;SDS011;18593;51.426;7.030;2023-08-21T12:38:52;6.05;;;2.53;;
32080;SDS011;18593;51.426;7.030;2023-08-21T12:41:19;7.47;;;3.22;;
32080;SDS011;18593;51.426;7.030;2023-08-21T12:43:46;7.28;;;3.10;;
32080;SDS011;18593;51.426;7.030;2023-08-21T12:46:14;9.48;;;3.10;;
32080;SDS011;18593;51.426;7.030;2023-08-21T12:48:41;7.68;;;2.53;;
32080;SDS011;18593;51.426;7.030;2023-08-21T12:51:10;7.18;;;2.97;;
32080;SDS011;18593;51.426;7.030;2023-08-21T12:53:37;9.15;;;3.28;;
32080;SDS011;18593;51.426;7.030;2023-08-21T12:56:04;8.63;;;2.70;;
32080;SDS011;18593;51.426;7.030;2023-08-21T12:58:31;9.27;;;3.20;;
32080;SDS011;18593;51.426;7.030;2023-08-21T13:00:58;12.43;;;3.33;;
32080;SDS011;18593;51.426;7.030;2023-08-21T13:03:26;7.85;;;2.40;;
32080;SDS011;18593;51.426;7.030;2023-08-21T13:05:53;7.00;;;3.05;;
32080;SDS011;18593;51.426;7.030;2023-08-21T13:08:22;9.38;;;2.65;;
32080;SDS011;18593;51.426;7.030;2023-08-21T13:10:49;10.07;;;2.65;;
32080;SDS011;18593;51.426;7.030;2023-08-21T13:13:17;10.00;;;3.40;;
32080;SDS011;18593;51.426;7.030;2023-08-21T13:15:44;6.15;;;2.53;;
32080;SDS011;18593;51.426;7.030;2023-08-21T13:18:12;7.60;;;2.42;;
32080;SDS011;18593;51.426;7.030;2023-08-21T13:20:40;7.10;;;2.55;;
32080;SDS011;18593;51.426;7.030;2023-08-21T13:23:08;7.28;;;2.65;;
32080;SDS011;18593;51.426;7.030;2023-08-21T13:25:36;9.27;;;3.10;;
32080;SDS011;18593;51.426;7.030;2023-08-21T13:28:03;7.05;;;2.33;;
32080;SDS011;18593;51.426;7.030;2023-08-21T13:30:31;5.80;;;2.40;;
32080;SDS011;18593;51.426;7.030;2023-08-21T13:32:59;8.60;;;2.90;;
32080;SDS011;18593;51.426;7.030;2023-08-21T13:35:26;16.85;;;6.95;;
32080;SDS011;18593;51.426;7.030;2023-08-21T13:37:53;11.32;;;3.85;;
32080;SDS011;18593;51.426;7.030;2023-08-21T13:40:21;8.13;;;2.60;;
32080;SDS011;18593;51.426;7.030;2023-08-21T13:42:51;6.40;;;2.35;;
32080;SDS011;18593;51.426;7.030;2023-08-21T13:45:19;7.93;;;2.30;;
32080;SDS011;18593;51.426;7.030;2023-08-21T13:47:47;13.63;;;2.92;;
32080;SDS011;18593;51.426;7.030;2023-08-21T13:50:15;7.63;;;2.47;;
32080;SDS011;18593;51.426;7.030;2023-08-21T13:52:45;7.38;;;2.80;;
32080;SDS011;18593;51.426;7.030;2023-08-21T13:55:13;8.82;;;3.05;;
32080;SDS011;18593;51.426;7.030;2023-08-21T13:57:41;8.38;;;2.78;;
32080;SDS011;18593;51.426;7.030;2023-08-21T14:00:10;10.90;;;2.70;;
32080;SDS011;18593;51.426;7.030;2023-08-21T14:02:39;6.13;;;2.58;;
32080;SDS011;18593;51.426;7.030;2023-08-21T14:05:08;6.75;;;2.58;;
32080;SDS011;18593;51.426;7.030;2023-08-21T14:07:36;7.75;;;2.85;;
32080;SDS011;18593;51.426;7.030;2023-08-21T14:10:04;9.00;;;2.80;;
32080;SDS011;18593;51.426;7.030;2023-08-21T14:12:33;6.43;;;2.28;;
32080;SDS011;18593;51.426;7.030;2023-08-21T14:15:00;9.90;;;2.50;;
32080;SDS011;18593;51.426;7.030;2023-08-21T14:17:29;8.65;;;2.60;;
32080;SDS011;18593;51.426;7.030;2023-08-21T14:19:56;7.65;;;2.17;;
32080;SDS011;18593;51.426;7.030;2023-08-21T14:22:23;9.10;;;2.95;;
32080;SDS011;18593;51.426;7.030;2023-08-21T14:24:51;7.47;;;2.50;;
32080;SDS011;18593;51.426;7.030;2023-08-21T14:27:18;8.43;;;2.42;;
32080;SDS011;18593;51.426;7.030;2023-08-21T14:29:45;8.25;;;2.97;;
32080;SDS011;18593;51.426;7.030;2023-08-21T14:32:13;10.27;;;3.00;;
32080;SDS011;18593;51.426;7.030;2023-08-21T14:34:41;7.40;;;2.80;;
32080;SDS011;18593;51.426;7.030;2023-08-21T14:37:08;9.50;;;2.35;;
32080;SDS011;18593;51.426;7.030;2023-08-21T14:42:06;9.50;;;2.65;;
32080;SDS011;18593;51.426;7.030;2023-08-21T14:44:34;8.68;;;3.13;;
32080;SDS011;18593;51.426;7.030;2023-08-21T14:47:01;7.95;;;2.75;;
32080;SDS011;18593;51.426;7.030;2023-08-21T14:49:29;8.45;;;2.70;;
32080;SDS011;18593;51.426;7.030;2023-08-21T14:51:58;10.18;;;2.88;;
32080;SDS011;18593;51.426;7.030;2023-08-21T14:54:25;10.40;;;2.85;;
32080;SDS011;18593;51.426;7.030;2023-08-21T14:56:53;10.55;;;2.63;;
32080;SDS011;18593;51.426;7.030;2023-08-21T14:59:21;6.90;;;2.47;;
32080;SDS011;18593;51.426;7.030;2023-08-21T15:01:48;8.07;;;2.63;;
32080;SDS011;18593;51.426;7.030;2023-08-21T15:04:15;9.10;;;2.60;;
32080;SDS011;18593;51.426;7.030;2023-08-21T15:06:42;10.65;;;2.60;;